<?xml version="1.0" encoding="UTF-8" standalone="no" ?>
<gpx xmlns="http://www.topografix.com/GPX/1/1" xmlns:xsi="http://www.w3.org/2001/XMLSchema-instance" xsi:schemaLocation="http://www.topografix.com/GPX/1/1 http://www.topografix.com/GPX/1/1/gpx.xsd" version="1.1" creator="VisuGPX - https://www.visugpx.com">
  <metadata>
    <name>Randonnée du 06/02/2025 à 21:34</name>
    <desc><![CDATA[st roch 2025 6 km]]></desc>
  </metadata>
  <wpt lat="46.73122" lon="-0.71415">
    <ele>207</ele>
  </wpt>
  <wpt lat="46.73122" lon="-0.71424">
    <ele>208</ele>
  </wpt>
  <trk>
    <name><![CDATA[Randonnée du 06/02/2025 à 21:34]]></name>
    <extensions>
      <line xmlns="http://www.topografix.com/GPX/gpx_style/0/2">
        <color>0000FF</color>
        <width>4</width>
      </line>
    </extensions>
    <trkseg>
      <trkpt lat="46.73122" lon="-0.71424">
        <ele>208</ele>
        <time>2025-04-16T19:00:56.000Z</time>
      </trkpt>
      <trkpt lat="46.73085" lon="-0.71453">
        <ele>209</ele>
        <time>2025-04-16T19:01:55.000Z</time>
      </trkpt>
      <trkpt lat="46.73033" lon="-0.71464">
        <ele>208</ele>
        <time>2025-04-16T19:02:55.000Z</time>
      </trkpt>
      <trkpt lat="46.72978" lon="-0.71405">
        <ele>207</ele>
        <time>2025-04-16T19:04:13.000Z</time>
      </trkpt>
      <trkpt lat="46.72943" lon="-0.71364">
        <ele>206</ele>
        <time>2025-04-16T19:05:05.000Z</time>
      </trkpt>
      <trkpt lat="46.7298" lon="-0.71263">
        <ele>205</ele>
        <time>2025-04-16T19:06:35.000Z</time>
      </trkpt>
      <trkpt lat="46.72905" lon="-0.71189">
        <ele>204</ele>
        <time>2025-04-16T19:08:18.000Z</time>
      </trkpt>
      <trkpt lat="46.72868" lon="-0.71202">
        <ele>203</ele>
        <time>2025-04-16T19:09:01.000Z</time>
      </trkpt>
      <trkpt lat="46.72837" lon="-0.71182">
        <ele>201</ele>
        <time>2025-04-16T19:09:41.000Z</time>
      </trkpt>
      <trkpt lat="46.72801" lon="-0.71115">
        <ele>200</ele>
        <time>2025-04-16T19:10:47.000Z</time>
      </trkpt>
      <trkpt lat="46.72742" lon="-0.71071">
        <ele>198</ele>
        <time>2025-04-16T19:12:03.000Z</time>
      </trkpt>
      <trkpt lat="46.72757" lon="-0.71025">
        <ele>198</ele>
        <time>2025-04-16T19:12:43.000Z</time>
      </trkpt>
      <trkpt lat="46.72711" lon="-0.70984">
        <ele>194</ele>
        <time>2025-04-16T19:13:44.000Z</time>
      </trkpt>
      <trkpt lat="46.72689" lon="-0.71021">
        <ele>194</ele>
        <time>2025-04-16T19:14:23.000Z</time>
      </trkpt>
      <trkpt lat="46.72644" lon="-0.71003">
        <ele>195</ele>
        <time>2025-04-16T19:15:26.000Z</time>
      </trkpt>
      <trkpt lat="46.72677" lon="-0.70947">
        <ele>194</ele>
        <time>2025-04-16T19:16:23.000Z</time>
      </trkpt>
      <trkpt lat="46.72684" lon="-0.70886">
        <ele>193</ele>
        <time>2025-04-16T19:17:11.000Z</time>
      </trkpt>
      <trkpt lat="46.72672" lon="-0.70853">
        <ele>194</ele>
        <time>2025-04-16T19:17:50.000Z</time>
      </trkpt>
      <trkpt lat="46.72714" lon="-0.70794">
        <ele>192</ele>
        <time>2025-04-16T19:18:57.000Z</time>
      </trkpt>
      <trkpt lat="46.72733" lon="-0.70766">
        <ele>190</ele>
        <time>2025-04-16T19:19:28.000Z</time>
      </trkpt>
      <trkpt lat="46.72638" lon="-0.7063">
        <ele>193</ele>
        <time>2025-04-16T19:22:32.000Z</time>
      </trkpt>
      <trkpt lat="46.72661" lon="-0.70294">
        <ele>189</ele>
        <time>2025-04-16T19:26:57.000Z</time>
      </trkpt>
      <trkpt lat="46.72681" lon="-0.7005">
        <ele>186</ele>
        <time>2025-04-16T19:30:10.000Z</time>
      </trkpt>
      <trkpt lat="46.7283" lon="-0.70076">
        <ele>183</ele>
        <time>2025-04-16T19:33:02.000Z</time>
      </trkpt>
      <trkpt lat="46.72899" lon="-0.70059">
        <ele>181</ele>
        <time>2025-04-16T19:34:21.000Z</time>
      </trkpt>
      <trkpt lat="46.72973" lon="-0.70126">
        <ele>184</ele>
        <time>2025-04-16T19:36:32.000Z</time>
      </trkpt>
      <trkpt lat="46.73006" lon="-0.7015">
        <ele>187</ele>
        <time>2025-04-16T19:37:45.000Z</time>
      </trkpt>
      <trkpt lat="46.73085" lon="-0.70141">
        <ele>189</ele>
        <time>2025-04-16T19:39:36.000Z</time>
      </trkpt>
      <trkpt lat="46.73114" lon="-0.70141">
        <ele>190</ele>
        <time>2025-04-16T19:40:20.000Z</time>
      </trkpt>
      <trkpt lat="46.73211" lon="-0.70104">
        <ele>190</ele>
        <time>2025-04-16T19:42:15.000Z</time>
      </trkpt>
      <trkpt lat="46.73392" lon="-0.70006">
        <ele>191</ele>
        <time>2025-04-16T19:46:06.000Z</time>
      </trkpt>
      <trkpt lat="46.73422" lon="-0.70098">
        <ele>193</ele>
        <time>2025-04-16T19:47:47.000Z</time>
      </trkpt>
      <trkpt lat="46.73458" lon="-0.70179">
        <ele>196</ele>
        <time>2025-04-16T19:49:33.000Z</time>
      </trkpt>
      <trkpt lat="46.73487" lon="-0.70237">
        <ele>198</ele>
        <time>2025-04-16T19:50:50.000Z</time>
      </trkpt>
      <trkpt lat="46.73494" lon="-0.70275">
        <ele>199</ele>
        <time>2025-04-16T19:51:32.000Z</time>
      </trkpt>
      <trkpt lat="46.73599" lon="-0.70242">
        <ele>200</ele>
        <time>2025-04-16T19:53:45.000Z</time>
      </trkpt>
      <trkpt lat="46.73669" lon="-0.70166">
        <ele>201</ele>
        <time>2025-04-16T19:55:35.000Z</time>
      </trkpt>
      <trkpt lat="46.7376" lon="-0.70104">
        <ele>199</ele>
        <time>2025-04-16T19:57:30.000Z</time>
      </trkpt>
      <trkpt lat="46.73938" lon="-0.70414">
        <ele>187</ele>
        <time>2025-04-16T20:02:48.000Z</time>
      </trkpt>
      <trkpt lat="46.73961" lon="-0.70465">
        <ele>185</ele>
        <time>2025-04-16T20:03:36.000Z</time>
      </trkpt>
      <trkpt lat="46.74057" lon="-0.70534">
        <ele>178</ele>
        <time>2025-04-16T20:05:38.000Z</time>
      </trkpt>
      <trkpt lat="46.74128" lon="-0.70576">
        <ele>177</ele>
        <time>2025-04-16T20:07:06.000Z</time>
      </trkpt>
      <trkpt lat="46.74166" lon="-0.70622">
        <ele>175</ele>
        <time>2025-04-16T20:08:03.000Z</time>
      </trkpt>
      <trkpt lat="46.74156" lon="-0.70654">
        <ele>173</ele>
        <time>2025-04-16T20:08:30.000Z</time>
      </trkpt>
      <trkpt lat="46.74093" lon="-0.70674">
        <ele>175</ele>
        <time>2025-04-16T20:10:05.000Z</time>
      </trkpt>
      <trkpt lat="46.74028" lon="-0.70812">
        <ele>183</ele>
        <time>2025-04-16T20:13:39.000Z</time>
      </trkpt>
      <trkpt lat="46.7397" lon="-0.70894">
        <ele>183</ele>
        <time>2025-04-16T20:15:11.000Z</time>
      </trkpt>
      <trkpt lat="46.73803" lon="-0.70905">
        <ele>184</ele>
        <time>2025-04-16T20:18:33.000Z</time>
      </trkpt>
      <trkpt lat="46.73728" lon="-0.7096">
        <ele>187</ele>
        <time>2025-04-16T20:20:40.000Z</time>
      </trkpt>
      <trkpt lat="46.73635" lon="-0.7098">
        <ele>190</ele>
        <time>2025-04-16T20:22:59.000Z</time>
      </trkpt>
      <trkpt lat="46.73541" lon="-0.71003">
        <ele>193</ele>
        <time>2025-04-16T20:25:18.000Z</time>
      </trkpt>
      <trkpt lat="46.7342" lon="-0.7107">
        <ele>195</ele>
        <time>2025-04-16T20:28:08.000Z</time>
      </trkpt>
      <trkpt lat="46.73407" lon="-0.71172">
        <ele>197</ele>
        <time>2025-04-16T20:29:50.000Z</time>
      </trkpt>
      <trkpt lat="46.73405" lon="-0.713">
        <ele>194</ele>
        <time>2025-04-16T20:31:30.000Z</time>
      </trkpt>
      <trkpt lat="46.7347" lon="-0.71318">
        <ele>192</ele>
        <time>2025-04-16T20:32:46.000Z</time>
      </trkpt>
      <trkpt lat="46.73505" lon="-0.71448">
        <ele>188</ele>
        <time>2025-04-16T20:34:35.000Z</time>
      </trkpt>
      <trkpt lat="46.73542" lon="-0.71535">
        <ele>186</ele>
        <time>2025-04-16T20:35:56.000Z</time>
      </trkpt>
      <trkpt lat="46.73493" lon="-0.71614">
        <ele>188</ele>
        <time>2025-04-16T20:37:40.000Z</time>
      </trkpt>
      <trkpt lat="46.73463" lon="-0.71636">
        <ele>191</ele>
        <time>2025-04-16T20:38:49.000Z</time>
      </trkpt>
      <trkpt lat="46.73386" lon="-0.7164">
        <ele>196</ele>
        <time>2025-04-16T20:41:09.000Z</time>
      </trkpt>
      <trkpt lat="46.73313" lon="-0.71507">
        <ele>194</ele>
        <time>2025-04-16T20:43:23.000Z</time>
      </trkpt>
      <trkpt lat="46.73283" lon="-0.71539">
        <ele>198</ele>
        <time>2025-04-16T20:44:47.000Z</time>
      </trkpt>
      <trkpt lat="46.73242" lon="-0.71575">
        <ele>205</ele>
        <time>2025-04-16T20:46:54.000Z</time>
      </trkpt>
      <trkpt lat="46.73156" lon="-0.71605">
        <ele>209</ele>
        <time>2025-04-16T20:49:17.000Z</time>
      </trkpt>
      <trkpt lat="46.7312" lon="-0.7159">
        <ele>209</ele>
        <time>2025-04-16T20:49:59.000Z</time>
      </trkpt>
      <trkpt lat="46.73088" lon="-0.71471">
        <ele>209</ele>
        <time>2025-04-16T20:51:40.000Z</time>
      </trkpt>
      <trkpt lat="46.73122" lon="-0.71415">
        <ele>207</ele>
        <time>2025-04-16T20:52:38.000Z</time>
      </trkpt>
    </trkseg>
  </trk>
</gpx>